sensor_id;sensor_type;location;lat;lon;timestamp;P1;durP1;ratioP1;P2;durP2;ratioP2
39778;SDS011;25454;49.878;8.618;2022-12-29T00:00:22;4.07;;;2.53;;
39778;SDS011;25454;49.878;8.618;2022-12-29T00:05:23;5.13;;;2.30;;
39778;SDS011;25454;49.878;8.618;2022-12-29T00:10:23;3.03;;;2.30;;
39778;SDS011;25454;49.878;8.618;2022-12-29T00:15:24;4.23;;;2.43;;
39778;SDS011;25454;49.878;8.618;2022-12-29T00:20:37;3.30;;;2.20;;
39778;SDS011;25454;49.878;8.618;2022-12-29T00:25:57;2.67;;;2.07;;
39778;SDS011;25454;49.878;8.618;2022-12-29T00:31:16;2.63;;;2.07;;
39778;SDS011;25454;49.878;8.618;2022-12-29T00:36:36;3.37;;;2.20;;
39778;SDS011;25454;49.878;8.618;2022-12-29T00:41:40;4.53;;;1.90;;
39778;SDS011;25454;49.878;8.618;2022-12-29T00:46:59;4.00;;;2.37;;
39778;SDS011;25454;49.878;8.618;2022-12-29T00:52:05;3.33;;;2.03;;
39778;SDS011;25454;49.878;8.618;2022-12-29T00:57:08;3.97;;;1.90;;
39778;SDS011;25454;49.878;8.618;2022-12-29T01:02:09;2.53;;;1.60;;
39778;SDS011;25454;49.878;8.618;2022-12-29T01:07:10;1.80;;;1.33;;
39778;SDS011;25454;49.878;8.618;2022-12-29T01:12:11;2.83;;;1.30;;
39778;SDS011;25454;49.878;8.618;2022-12-29T01:17:12;2.30;;;1.47;;
39778;SDS011;25454;49.878;8.618;2022-12-29T01:22:12;2.77;;;1.40;;
39778;SDS011;25454;49.878;8.618;2022-12-29T01:27:13;3.40;;;1.40;;
39778;SDS011;25454;49.878;8.618;2022-12-29T01:32:13;3.07;;;1.20;;
39778;SDS011;25454;49.878;8.618;2022-12-29T01:37:14;3.13;;;1.20;;
39778;SDS011;25454;49.878;8.618;2022-12-29T01:42:19;3.80;;;1.20;;
39778;SDS011;25454;49.878;8.618;2022-12-29T01:52:33;1.03;;;0.83;;
39778;SDS011;25454;49.878;8.618;2022-12-29T01:57:37;1.23;;;0.80;;
39778;SDS011;25454;49.878;8.618;2022-12-29T02:02:47;3.70;;;0.80;;
39778;SDS011;25454;49.878;8.618;2022-12-29T02:07:51;2.77;;;0.83;;
39778;SDS011;25454;49.878;8.618;2022-12-29T02:12:52;5.20;;;1.17;;
39778;SDS011;25454;49.878;8.618;2022-12-29T02:18:01;0.90;;;0.57;;
39778;SDS011;25454;49.878;8.618;2022-12-29T02:39:04;1.33;;;0.70;;
39778;SDS011;25454;49.878;8.618;2022-12-29T02:49:38;1.17;;;0.80;;
39778;SDS011;25454;49.878;8.618;2022-12-29T02:54:48;1.17;;;1.00;;
39778;SDS011;25454;49.878;8.618;2022-12-29T02:59:53;1.57;;;0.93;;
39778;SDS011;25454;49.878;8.618;2022-12-29T03:10:40;1.90;;;1.10;;
39778;SDS011;25454;49.878;8.618;2022-12-29T03:15:43;1.53;;;0.97;;
39778;SDS011;25454;49.878;8.618;2022-12-29T03:26:50;1.17;;;1.00;;
39778;SDS011;25454;49.878;8.618;2022-12-29T03:31:55;0.93;;;0.60;;
39778;SDS011;25454;49.878;8.618;2022-12-29T03:37:04;1.57;;;0.93;;
39778;SDS011;25454;49.878;8.618;2022-12-29T03:42:12;2.27;;;0.90;;
39778;SDS011;25454;49.878;8.618;2022-12-29T03:47:15;2.77;;;0.77;;
39778;SDS011;25454;49.878;8.618;2022-12-29T03:52:15;1.30;;;0.90;;
39778;SDS011;25454;49.878;8.618;2022-12-29T03:57:16;2.90;;;1.00;;
39778;SDS011;25454;49.878;8.618;2022-12-29T04:02:16;1.07;;;0.80;;
39778;SDS011;25454;49.878;8.618;2022-12-29T04:07:17;2.20;;;1.10;;
39778;SDS011;25454;49.878;8.618;2022-12-29T04:12:17;1.77;;;1.00;;
39778;SDS011;25454;49.878;8.618;2022-12-29T04:17:18;1.07;;;0.70;;
39778;SDS011;25454;49.878;8.618;2022-12-29T04:22:19;0.93;;;0.90;;
39778;SDS011;25454;49.878;8.618;2022-12-29T04:27:19;2.97;;;1.07;;
39778;SDS011;25454;49.878;8.618;2022-12-29T04:32:20;2.30;;;0.83;;
39778;SDS011;25454;49.878;8.618;2022-12-29T04:37:20;3.10;;;1.30;;
39778;SDS011;25454;49.878;8.618;2022-12-29T04:42:21;2.23;;;1.23;;
39778;SDS011;25454;49.878;8.618;2022-12-29T04:47:22;1.43;;;1.07;;
39778;SDS011;25454;49.878;8.618;2022-12-29T04:52:22;2.70;;;1.20;;
39778;SDS011;25454;49.878;8.618;2022-12-29T04:57:23;1.57;;;1.10;;
39778;SDS011;25454;49.878;8.618;2022-12-29T05:02:23;4.33;;;1.43;;
39778;SDS011;25454;49.878;8.618;2022-12-29T05:07:24;1.10;;;0.90;;
39778;SDS011;25454;49.878;8.618;2022-12-29T05:12:25;5.20;;;1.20;;
39778;SDS011;25454;49.878;8.618;2022-12-29T05:17:25;1.57;;;0.93;;
39778;SDS011;25454;49.878;8.618;2022-12-29T05:22:26;2.80;;;1.10;;
39778;SDS011;25454;49.878;8.618;2022-12-29T05:27:27;2.40;;;1.40;;
39778;SDS011;25454;49.878;8.618;2022-12-29T05:32:27;1.50;;;0.90;;
39778;SDS011;25454;49.878;8.618;2022-12-29T05:37:28;2.63;;;1.13;;
39778;SDS011;25454;49.878;8.618;2022-12-29T05:42:28;1.87;;;0.97;;
39778;SDS011;25454;49.878;8.618;2022-12-29T05:47:29;1.00;;;0.90;;
39778;SDS011;25454;49.878;8.618;2022-12-29T05:52:29;3.17;;;1.23;;
39778;SDS011;25454;49.878;8.618;2022-12-29T05:57:30;2.00;;;1.00;;
39778;SDS011;25454;49.878;8.618;2022-12-29T06:02:30;3.87;;;1.30;;
39778;SDS011;25454;49.878;8.618;2022-12-29T06:07:31;2.63;;;0.97;;
39778;SDS011;25454;49.878;8.618;2022-12-29T06:12:31;1.60;;;1.20;;
39778;SDS011;25454;49.878;8.618;2022-12-29T06:17:32;1.47;;;0.90;;
39778;SDS011;25454;49.878;8.618;2022-12-29T06:22:33;2.83;;;1.10;;
39778;SDS011;25454;49.878;8.618;2022-12-29T06:27:33;2.30;;;0.90;;
39778;SDS011;25454;49.878;8.618;2022-12-29T06:32:34;1.53;;;1.00;;
39778;SDS011;25454;49.878;8.618;2022-12-29T06:37:35;3.70;;;1.33;;
39778;SDS011;25454;49.878;8.618;2022-12-29T06:42:36;1.87;;;1.40;;
39778;SDS011;25454;49.878;8.618;2022-12-29T06:47:36;2.83;;;1.60;;
39778;SDS011;25454;49.878;8.618;2022-12-29T06:52:37;1.37;;;1.27;;
39778;SDS011;25454;49.878;8.618;2022-12-29T06:57:38;3.93;;;1.33;;
39778;SDS011;25454;49.878;8.618;2022-12-29T07:02:39;4.00;;;1.47;;
39778;SDS011;25454;49.878;8.618;2022-12-29T07:07:39;3.13;;;1.30;;
39778;SDS011;25454;49.878;8.618;2022-12-29T07:12:40;2.27;;;1.60;;
39778;SDS011;25454;49.878;8.618;2022-12-29T07:17:40;1.73;;;1.30;;
39778;SDS011;25454;49.878;8.618;2022-12-29T07:22:44;2.30;;;1.33;;
39778;SDS011;25454;49.878;8.618;2022-12-29T07:27:45;3.30;;;1.83;;
39778;SDS011;25454;49.878;8.618;2022-12-29T07:32:45;3.27;;;1.73;;
39778;SDS011;25454;49.878;8.618;2022-12-29T07:37:46;3.73;;;1.70;;
39778;SDS011;25454;49.878;8.618;2022-12-29T07:42:47;6.43;;;2.00;;
39778;SDS011;25454;49.878;8.618;2022-12-29T07:47:48;4.17;;;1.70;;
39778;SDS011;25454;49.878;8.618;2022-12-29T07:52:49;3.43;;;2.03;;
39778;SDS011;25454;49.878;8.618;2022-12-29T07:57:52;1.97;;;1.53;;
39778;SDS011;25454;49.878;8.618;2022-12-29T08:02:53;2.73;;;1.40;;
39778;SDS011;25454;49.878;8.618;2022-12-29T08:07:54;1.87;;;1.20;;
39778;SDS011;25454;49.878;8.618;2022-12-29T08:12:55;1.70;;;1.20;;
39778;SDS011;25454;49.878;8.618;2022-12-29T08:17:56;3.27;;;1.30;;
39778;SDS011;25454;49.878;8.618;2022-12-29T08:22:56;2.90;;;1.53;;
39778;SDS011;25454;49.878;8.618;2022-12-29T08:27:57;4.23;;;1.70;;
39778;SDS011;25454;49.878;8.618;2022-12-29T08:32:58;3.30;;;1.60;;
39778;SDS011;25454;49.878;8.618;2022-12-29T08:37:58;2.70;;;1.63;;
39778;SDS011;25454;49.878;8.618;2022-12-29T08:42:59;3.60;;;1.90;;
39778;SDS011;25454;49.878;8.618;2022-12-29T08:47:59;3.00;;;1.70;;
39778;SDS011;25454;49.878;8.618;2022-12-29T08:53:00;4.67;;;1.40;;
39778;SDS011;25454;49.878;8.618;2022-12-29T08:58:00;3.50;;;1.60;;
39778;SDS011;25454;49.878;8.618;2022-12-29T09:03:01;4.53;;;2.00;;
39778;SDS011;25454;49.878;8.618;2022-12-29T09:08:01;3.77;;;2.00;;
39778;SDS011;25454;49.878;8.618;2022-12-29T09:13:02;4.73;;;1.87;;
39778;SDS011;25454;49.878;8.618;2022-12-29T09:18:03;6.70;;;2.27;;
39778;SDS011;25454;49.878;8.618;2022-12-29T09:23:04;2.70;;;1.80;;
39778;SDS011;25454;49.878;8.618;2022-12-29T09:28:06;4.93;;;2.27;;
39778;SDS011;25454;49.878;8.618;2022-12-29T09:33:07;1.63;;;1.43;;
39778;SDS011;25454;49.878;8.618;2022-12-29T09:38:08;2.40;;;1.80;;
39778;SDS011;25454;49.878;8.618;2022-12-29T09:43:13;3.37;;;1.73;;
39778;SDS011;25454;49.878;8.618;2022-12-29T09:48:22;4.37;;;2.00;;
39778;SDS011;25454;49.878;8.618;2022-12-29T09:53:35;2.67;;;2.00;;
39778;SDS011;25454;49.878;8.618;2022-12-29T09:58:39;5.50;;;2.00;;
39778;SDS011;25454;49.878;8.618;2022-12-29T10:03:48;4.03;;;1.93;;
39778;SDS011;25454;49.878;8.618;2022-12-29T10:09:53;6.73;;;2.10;;
39778;SDS011;25454;49.878;8.618;2022-12-29T10:25:18;5.87;;;1.93;;
39778;SDS011;25454;49.878;8.618;2022-12-29T10:30:21;4.37;;;2.30;;
39778;SDS011;25454;49.878;8.618;2022-12-29T10:35:24;3.30;;;1.60;;
39778;SDS011;25454;49.878;8.618;2022-12-29T10:40:36;1.63;;;1.40;;
39778;SDS011;25454;49.878;8.618;2022-12-29T10:45:41;4.23;;;2.10;;
39778;SDS011;25454;49.878;8.618;2022-12-29T10:50:42;5.17;;;2.50;;
39778;SDS011;25454;49.878;8.618;2022-12-29T10:55:42;5.73;;;3.17;;
39778;SDS011;25454;49.878;8.618;2022-12-29T11:00:47;4.90;;;2.63;;
39778;SDS011;25454;49.878;8.618;2022-12-29T11:11:34;2.70;;;2.47;;
39778;SDS011;25454;49.878;8.618;2022-12-29T11:16:36;3.47;;;1.70;;
39778;SDS011;25454;49.878;8.618;2022-12-29T11:21:37;2.93;;;1.80;;
39778;SDS011;25454;49.878;8.618;2022-12-29T11:26:43;3.23;;;1.20;;
39778;SDS011;25454;49.878;8.618;2022-12-29T11:31:51;4.17;;;1.70;;
39778;SDS011;25454;49.878;8.618;2022-12-29T11:37:05;3.97;;;1.00;;
39778;SDS011;25454;49.878;8.618;2022-12-29T11:42:15;1.27;;;0.80;;
39778;SDS011;25454;49.878;8.618;2022-12-29T11:52:46;1.47;;;1.10;;
39778;SDS011;25454;49.878;8.618;2022-12-29T11:57:50;1.50;;;0.80;;
39778;SDS011;25454;49.878;8.618;2022-12-29T12:02:53;2.93;;;1.40;;
39778;SDS011;25454;49.878;8.618;2022-12-29T12:08:03;3.20;;;1.10;;
39778;SDS011;25454;49.878;8.618;2022-12-29T12:13:31;3.00;;;1.10;;
39778;SDS011;25454;49.878;8.618;2022-12-29T12:18:49;1.87;;;1.10;;
39778;SDS011;25454;49.878;8.618;2022-12-29T12:23:59;3.47;;;1.50;;
39778;SDS011;25454;49.878;8.618;2022-12-29T12:29:19;5.07;;;1.73;;
39778;SDS011;25454;49.878;8.618;2022-12-29T13:00:40;3.17;;;1.53;;
39778;SDS011;25454;49.878;8.618;2022-12-29T13:06:12;3.83;;;1.13;;
39778;SDS011;25454;49.878;8.618;2022-12-29T13:11:29;1.87;;;1.17;;
39778;SDS011;25454;49.878;8.618;2022-12-29T13:17:01;2.97;;;1.13;;
39778;SDS011;25454;49.878;8.618;2022-12-29T13:22:13;2.33;;;1.30;;
39778;SDS011;25454;49.878;8.618;2022-12-29T13:27:51;1.70;;;1.10;;
39778;SDS011;25454;49.878;8.618;2022-12-29T13:43:35;3.43;;;1.67;;
39778;SDS011;25454;49.878;8.618;2022-12-29T13:48:42;2.70;;;1.30;;
39778;SDS011;25454;49.878;8.618;2022-12-29T13:59:12;2.77;;;1.10;;
39778;SDS011;25454;49.878;8.618;2022-12-29T14:04:33;5.57;;;1.30;;
39778;SDS011;25454;49.878;8.618;2022-12-29T14:09:50;2.50;;;1.27;;
39778;SDS011;25454;49.878;8.618;2022-12-29T14:14:52;2.47;;;1.17;;
39778;SDS011;25454;49.878;8.618;2022-12-29T14:19:53;2.40;;;1.07;;
39778;SDS011;25454;49.878;8.618;2022-12-29T14:24:54;3.07;;;1.50;;
39778;SDS011;25454;49.878;8.618;2022-12-29T14:29:55;3.87;;;1.27;;
39778;SDS011;25454;49.878;8.618;2022-12-29T14:34:59;4.13;;;1.17;;
39778;SDS011;25454;49.878;8.618;2022-12-29T14:40:23;2.63;;;1.17;;
39778;SDS011;25454;49.878;8.618;2022-12-29T14:45:27;2.57;;;0.90;;
39778;SDS011;25454;49.878;8.618;2022-12-29T14:50:36;4.10;;;1.00;;
39778;SDS011;25454;49.878;8.618;2022-12-29T14:55:43;3.30;;;1.40;;
39778;SDS011;25454;49.878;8.618;2022-12-29T15:00:49;2.57;;;0.83;;
39778;SDS011;25454;49.878;8.618;2022-12-29T15:05:58;1.93;;;0.90;;
39778;SDS011;25454;49.878;8.618;2022-12-29T15:11:09;5.30;;;1.30;;
39778;SDS011;25454;49.878;8.618;2022-12-29T15:16:25;3.57;;;1.37;;
39778;SDS011;25454;49.878;8.618;2022-12-29T15:21:33;3.23;;;1.20;;
39778;SDS011;25454;49.878;8.618;2022-12-29T15:26:39;2.33;;;0.90;;
39778;SDS011;25454;49.878;8.618;2022-12-29T15:31:54;3.60;;;1.40;;
39778;SDS011;25454;49.878;8.618;2022-12-29T15:36:56;2.47;;;1.00;;
39778;SDS011;25454;49.878;8.618;2022-12-29T15:41:59;3.73;;;1.00;;
39778;SDS011;25454;49.878;8.618;2022-12-29T15:47:14;2.80;;;0.90;;
39778;SDS011;25454;49.878;8.618;2022-12-29T15:52:21;2.97;;;1.00;;
39778;SDS011;25454;49.878;8.618;2022-12-29T15:57:24;2.17;;;0.80;;
39778;SDS011;25454;49.878;8.618;2022-12-29T16:02:30;2.20;;;0.80;;
39778;SDS011;25454;49.878;8.618;2022-12-29T16:07:32;3.93;;;1.30;;
39778;SDS011;25454;49.878;8.618;2022-12-29T16:12:34;2.77;;;0.97;;
39778;SDS011;25454;49.878;8.618;2022-12-29T16:17:41;4.20;;;1.00;;
39778;SDS011;25454;49.878;8.618;2022-12-29T16:22:49;2.43;;;1.10;;
39778;SDS011;25454;49.878;8.618;2022-12-29T16:27:53;4.43;;;1.40;;
39778;SDS011;25454;49.878;8.618;2022-12-29T16:32:58;5.57;;;1.50;;
39778;SDS011;25454;49.878;8.618;2022-12-29T16:38:19;2.27;;;1.13;;
39778;SDS011;25454;49.878;8.618;2022-12-29T16:43:23;5.37;;;1.53;;
39778;SDS011;25454;49.878;8.618;2022-12-29T16:48:45;4.87;;;1.10;;
39778;SDS011;25454;49.878;8.618;2022-12-29T16:53:50;3.27;;;1.10;;
39778;SDS011;25454;49.878;8.618;2022-12-29T17:04:23;4.23;;;1.47;;
39778;SDS011;25454;49.878;8.618;2022-12-29T17:09:27;5.03;;;1.47;;
39778;SDS011;25454;49.878;8.618;2022-12-29T17:19:42;3.77;;;1.50;;
39778;SDS011;25454;49.878;8.618;2022-12-29T17:24:56;6.37;;;1.60;;
39778;SDS011;25454;49.878;8.618;2022-12-29T17:29:59;3.80;;;1.37;;
39778;SDS011;25454;49.878;8.618;2022-12-29T17:35:04;5.73;;;1.30;;
39778;SDS011;25454;49.878;8.618;2022-12-29T17:40:05;3.70;;;1.13;;
39778;SDS011;25454;49.878;8.618;2022-12-29T17:45:13;6.57;;;1.70;;
39778;SDS011;25454;49.878;8.618;2022-12-29T17:50:23;8.90;;;2.20;;
39778;SDS011;25454;49.878;8.618;2022-12-29T17:55:25;4.33;;;1.93;;
39778;SDS011;25454;49.878;8.618;2022-12-29T18:00:27;3.37;;;1.13;;
39778;SDS011;25454;49.878;8.618;2022-12-29T18:05:29;6.27;;;1.47;;
39778;SDS011;25454;49.878;8.618;2022-12-29T18:10:30;4.87;;;1.60;;
39778;SDS011;25454;49.878;8.618;2022-12-29T18:15:35;6.57;;;2.13;;
39778;SDS011;25454;49.878;8.618;2022-12-29T18:20:36;9.27;;;2.33;;
39778;SDS011;25454;49.878;8.618;2022-12-29T18:25:39;5.43;;;1.87;;
39778;SDS011;25454;49.878;8.618;2022-12-29T18:30:45;7.10;;;1.70;;
39778;SDS011;25454;49.878;8.618;2022-12-29T18:35:55;7.40;;;1.70;;
39778;SDS011;25454;49.878;8.618;2022-12-29T18:41:03;7.73;;;1.37;;
39778;SDS011;25454;49.878;8.618;2022-12-29T18:46:04;3.97;;;1.10;;
39778;SDS011;25454;49.878;8.618;2022-12-29T18:51:05;12.60;;;1.87;;
39778;SDS011;25454;49.878;8.618;2022-12-29T18:56:12;6.27;;;1.60;;
39778;SDS011;25454;49.878;8.618;2022-12-29T19:01:20;4.20;;;1.70;;
39778;SDS011;25454;49.878;8.618;2022-12-29T19:06:24;6.80;;;1.80;;
39778;SDS011;25454;49.878;8.618;2022-12-29T19:11:25;8.73;;;3.07;;
39778;SDS011;25454;49.878;8.618;2022-12-29T19:16:25;9.20;;;3.83;;
39778;SDS011;25454;49.878;8.618;2022-12-29T19:21:26;6.03;;;3.10;;
39778;SDS011;25454;49.878;8.618;2022-12-29T19:26:31;7.40;;;2.37;;
39778;SDS011;25454;49.878;8.618;2022-12-29T19:31:33;6.87;;;2.10;;
39778;SDS011;25454;49.878;8.618;2022-12-29T19:36:35;6.27;;;2.40;;
39778;SDS011;25454;49.878;8.618;2022-12-29T19:41:36;9.47;;;2.63;;
39778;SDS011;25454;49.878;8.618;2022-12-29T19:46:37;8.60;;;2.30;;
39778;SDS011;25454;49.878;8.618;2022-12-29T19:51:37;7.07;;;2.30;;
39778;SDS011;25454;49.878;8.618;2022-12-29T19:56:38;8.57;;;3.00;;
39778;SDS011;25454;49.878;8.618;2022-12-29T20:01:41;6.87;;;2.33;;
39778;SDS011;25454;49.878;8.618;2022-12-29T20:06:42;6.67;;;2.70;;
39778;SDS011;25454;49.878;8.618;2022-12-29T20:11:42;5.20;;;2.83;;
39778;SDS011;25454;49.878;8.618;2022-12-29T20:16:43;5.63;;;2.90;;
39778;SDS011;25454;49.878;8.618;2022-12-29T20:21:44;7.40;;;3.00;;
39778;SDS011;25454;49.878;8.618;2022-12-29T20:26:44;9.90;;;2.90;;
39778;SDS011;25454;49.878;8.618;2022-12-29T20:31:45;7.10;;;3.30;;
39778;SDS011;25454;49.878;8.618;2022-12-29T20:36:47;7.10;;;2.73;;
39778;SDS011;25454;49.878;8.618;2022-12-29T20:41:47;5.10;;;2.80;;
39778;SDS011;25454;49.878;8.618;2022-12-29T20:46:48;4.57;;;2.60;;
39778;SDS011;25454;49.878;8.618;2022-12-29T20:51:49;6.33;;;2.93;;
39778;SDS011;25454;49.878;8.618;2022-12-29T20:56:50;7.37;;;2.90;;
39778;SDS011;25454;49.878;8.618;2022-12-29T21:01:51;7.40;;;3.20;;
39778;SDS011;25454;49.878;8.618;2022-12-29T21:06:52;10.00;;;3.23;;
39778;SDS011;25454;49.878;8.618;2022-12-29T21:11:52;6.30;;;2.77;;
39778;SDS011;25454;49.878;8.618;2022-12-29T21:16:53;8.07;;;2.67;;
39778;SDS011;25454;49.878;8.618;2022-12-29T21:21:53;6.13;;;2.40;;
39778;SDS011;25454;49.878;8.618;2022-12-29T21:26:54;6.67;;;2.90;;
39778;SDS011;25454;49.878;8.618;2022-12-29T21:31:54;5.53;;;2.47;;
39778;SDS011;25454;49.878;8.618;2022-12-29T21:36:55;6.67;;;2.80;;
39778;SDS011;25454;49.878;8.618;2022-12-29T21:41:56;8.13;;;2.63;;
39778;SDS011;25454;49.878;8.618;2022-12-29T21:46:58;8.17;;;2.63;;
39778;SDS011;25454;49.878;8.618;2022-12-29T21:51:59;7.07;;;2.97;;
39778;SDS011;25454;49.878;8.618;2022-12-29T21:57:00;5.47;;;2.73;;
39778;SDS011;25454;49.878;8.618;2022-12-29T22:02:02;8.00;;;3.30;;
39778;SDS011;25454;49.878;8.618;2022-12-29T22:07:23;5.13;;;2.73;;
39778;SDS011;25454;49.878;8.618;2022-12-29T22:12:42;8.53;;;3.10;;
39778;SDS011;25454;49.878;8.618;2022-12-29T22:18:02;5.03;;;2.40;;
39778;SDS011;25454;49.878;8.618;2022-12-29T22:23:03;8.90;;;3.10;;
39778;SDS011;25454;49.878;8.618;2022-12-29T22:28:04;9.60;;;3.03;;
39778;SDS011;25454;49.878;8.618;2022-12-29T22:33:05;6.50;;;2.93;;
39778;SDS011;25454;49.878;8.618;2022-12-29T22:38:06;6.53;;;2.97;;
39778;SDS011;25454;49.878;8.618;2022-12-29T22:43:06;8.60;;;3.07;;
39778;SDS011;25454;49.878;8.618;2022-12-29T22:48:07;7.50;;;2.37;;
39778;SDS011;25454;49.878;8.618;2022-12-29T22:53:08;13.13;;;2.70;;
39778;SDS011;25454;49.878;8.618;2022-12-29T22:58:08;11.50;;;2.47;;
39778;SDS011;25454;49.878;8.618;2022-12-29T23:03:09;6.20;;;2.30;;
39778;SDS011;25454;49.878;8.618;2022-12-29T23:08:09;11.93;;;2.60;;
39778;SDS011;25454;49.878;8.618;2022-12-29T23:13:10;6.20;;;2.03;;
39778;SDS011;25454;49.878;8.618;2022-12-29T23:18:10;10.00;;;2.23;;
39778;SDS011;25454;49.878;8.618;2022-12-29T23:23:11;9.33;;;2.20;;
39778;SDS011;25454;49.878;8.618;2022-12-29T23:28:11;8.23;;;2.33;;
39778;SDS011;25454;49.878;8.618;2022-12-29T23:33:12;11.37;;;2.30;;
39778;SDS011;25454;49.878;8.618;2022-12-29T23:38:12;8.77;;;2.20;;
39778;SDS011;25454;49.878;8.618;2022-12-29T23:43:13;10.77;;;2.57;;
39778;SDS011;25454;49.878;8.618;2022-12-29T23:48:13;9.00;;;2.10;;
39778;SDS011;25454;49.878;8.618;2022-12-29T23:53:14;7.50;;;2.50;;
39778;SDS011;25454;49.878;8.618;2022-12-29T23:58:14;7.93;;;2.17;;
